Time;durP1;ratioP1;P1;durP2;ratioP2;P2;SDS_P1;SDS_P2;PMS_P1;PMS_P2;Temp;Humidity;BMP_temperature;BMP_pressure;BME280_temperature;BME280_humidity;BME280_pressure;Samples;Min_cycle;Max_cycle;Signal;HPM_P1;HPM_P2
2021/04/09 00:00:13;;;;;;;;;;;23.80;44.90;;;;;;1591829;73;743;-69
2021/04/09 00:02:15;;;;;;;;;;;23.80;45.00;;;;;;1601293;73;922;-68
2021/04/09 00:04:17;;;;;;;;;;;23.90;45.00;;;;;;1601736;73;1132;-69
2021/04/09 00:06:19;;;;;;;;;;;23.80;45.00;;;;;;1598549;73;1964;-71
2021/04/09 00:08:21;;;;;;;;;;;23.80;45.00;;;;;;1604982;73;765;-71
2021/04/09 00:10:23;;;;;;;;;;;23.80;45.00;;;;;;1597757;73;771;-68
2021/04/09 00:12:25;;;;;;;;;;;23.80;45.00;;;;;;1590413;73;753;-65
2021/04/09 00:14:27;;;;;;;;;;;23.70;45.00;;;;;;1593375;73;1151;-66
2021/04/09 00:16:29;;;;;;;;;;;23.80;45.00;;;;;;1596124;73;667;-67
2021/04/09 00:18:31;;;;;;;;;;;23.80;45.00;;;;;;1595029;73;720;-66
2021/04/09 00:20:33;;;;;;;;;;;23.80;45.20;;;;;;1597845;73;697;-67
2021/04/09 00:22:35;;;;;;;;;;;23.70;45.20;;;;;;1599706;73;782;-68
2021/04/09 00:24:37;;;;;;;;;;;23.80;45.20;;;;;;1600005;73;1097;-67
2021/04/09 00:26:38;;;;;;;;;;;23.80;45.00;;;;;;1609079;73;1964;-67
2021/04/09 00:28:40;;;;;;;;;;;23.80;45.00;;;;;;1606503;73;723;-68
2021/04/09 00:30:42;;;;;;;;;;;23.70;45.00;;;;;;1596955;73;799;-67
2021/04/09 00:32:45;;;;;;;;;;;23.70;45.00;;;;;;1598634;73;817;-67
2021/04/09 00:34:47;;;;;;;;;;;23.70;45.00;;;;;;1600397;73;1126;-67
2021/04/09 00:36:49;;;;;;;;;;;23.70;45.00;;;;;;1596304;73;789;-69
2021/04/09 00:38:51;;;;;;;;;;;23.70;45.00;;;;;;1601148;73;802;-67
2021/04/09 00:40:52;;;;;;;;;;;23.80;45.00;;;;;;1593564;73;749;-67
2021/04/09 00:42:54;;;;;;;;;;;23.80;45.00;;;;;;1595703;73;758;-67
2021/04/09 00:44:57;;;;;;;;;;;23.70;44.90;;;;;;1599082;73;1073;-67
2021/04/09 00:46:59;;;;;;;;;;;23.70;44.90;;;;;;1608874;73;1932;-67
2021/04/09 00:49:01;;;;;;;;;;;23.80;44.80;;;;;;1603380;73;846;-69
2021/04/09 00:51:04;;;;;;;;;;;23.70;44.90;;;;;;1600670;73;662;-69
2021/04/09 00:53:10;;;;;;;;;;;23.70;45.00;;;;;;1605162;73;1180;-69
2021/04/09 00:55:12;;;;;;;;;;;23.80;44.80;;;;;;1600735;73;772;-65
2021/04/09 00:57:15;;;;;;;;;;;23.70;44.80;;;;;;1601716;73;674;-67
2021/04/09 00:59:17;;;;;;;;;;;23.70;44.80;;;;;;1593481;73;1867;-67
2021/04/09 01:01:19;;;;;;;;;;;23.60;44.60;;;;;;1601387;73;792;-67
2021/04/09 01:03:21;;;;;;;;;;;23.60;44.60;;;;;;1600215;73;1145;-67
2021/04/09 01:05:23;;;;;;;;;;;23.60;44.50;;;;;;1605343;73;784;-69
2021/04/09 01:07:25;;;;;;;;;;;23.70;44.70;;;;;;1604534;72;1939;-70
2021/04/09 01:09:27;;;;;;;;;;;23.60;44.60;;;;;;1603088;73;820;-68
2021/04/09 01:11:29;;;;;;;;;;;23.60;44.70;;;;;;1604377;73;709;-68
2021/04/09 01:13:31;;;;;;;;;;;23.60;44.70;;;;;;1601125;73;1118;-69
2021/04/09 01:15:33;;;;;;;;;;;23.70;44.90;;;;;;1596200;73;785;-70
2021/04/09 01:17:37;;;;;;;;;;;23.60;44.80;;;;;;1596173;73;797;-68
2021/04/09 01:19:40;;;;;;;;;;;23.70;45.00;;;;;;1602266;73;714;-68
2021/04/09 01:21:44;;;;;;;;;;;23.60;44.90;;;;;;1603552;73;786;-68
2021/04/09 01:24:02;;;;;;;;;;;23.70;45.10;;;;;;1604185;73;1146;-68
2021/04/09 01:26:15;;;;;;;;;;;23.60;44.90;;;;;;1605258;73;1941;-67
2021/04/09 01:28:24;;;;;;;;;;;23.60;45.00;;;;;;1599103;73;711;-67
2021/04/09 01:30:40;;;;;;;;;;;23.70;45.00;;;;;;1602014;73;1814;-69
2021/04/09 01:32:42;;;;;;;;;;;23.60;45.00;;;;;;1603598;73;1812;-70
2021/04/09 01:34:45;;;;;;;;;;;23.60;44.90;;;;;;1604986;73;1162;-70
2021/04/09 01:36:52;;;;;;;;;;;23.70;45.00;;;;;;1601507;73;1787;-69
2021/04/09 01:39:11;;;;;;;;;;;23.70;45.00;;;;;;1599571;73;1770;-68
2021/04/09 01:41:13;;;;;;;;;;;23.70;45.00;;;;;;1595295;73;1450;-67
2021/04/09 01:43:16;;;;;;;;;;;23.70;45.00;;;;;;1607334;73;1159;-70
2021/04/09 01:45:17;;;;;;;;;;;23.60;44.90;;;;;;1597130;73;744;-69
2021/04/09 01:47:21;;;;;;;;;;;23.60;44.90;;;;;;1602650;73;1949;-70
2021/04/09 01:49:23;;;;;;;;;;;23.60;44.90;;;;;;1603060;73;1790;-68
2021/04/09 01:51:25;;;;;;;;;;;23.70;44.90;;;;;;1603277;73;768;-68
2021/04/09 01:53:27;;;;;;;;;;;23.60;44.70;;;;;;1604177;73;1150;-68
2021/04/09 01:55:29;;;;;;;;;;;23.70;45.00;;;;;;1608064;73;859;-68
2021/04/09 01:57:31;;;;;;;;;;;23.70;45.00;;;;;;1601658;73;714;-66
2021/04/09 01:59:32;;;;;;;;;;;23.70;45.00;;;;;;1599098;73;763;-65
2021/04/09 02:01:35;;;;;;;;;;;23.70;45.00;;;;;;1594123;73;782;-67
2021/04/09 02:03:37;;;;;;;;;;;23.70;45.00;;;;;;1604040;73;1110;-67
2021/04/09 02:05:38;;;;;;;;;;;23.60;44.80;;;;;;1604415;73;719;-67
2021/04/09 02:07:41;;;;;;;;;;;23.60;44.90;;;;;;1598253;73;1944;-66
2021/04/09 02:09:43;;;;;;;;;;;23.60;44.80;;;;;;1568846;74;723;-67
2021/04/09 02:11:45;;;;;;;;;;;23.60;44.80;;;;;;1600200;73;882;-68
2021/04/09 02:13:47;;;;;;;;;;;23.70;45.00;;;;;;1600429;73;1166;-68
2021/04/09 02:15:50;;;;;;;;;;;23.60;44.70;;;;;;1605220;73;792;-68
2021/04/09 02:17:52;;;;;;;;;;;23.70;44.90;;;;;;1605270;73;1187;-67
2021/04/09 02:19:54;;;;;;;;;;;23.70;44.90;;;;;;1607595;73;809;-70
2021/04/09 02:21:56;;;;;;;;;;;23.60;44.80;;;;;;1611630;73;835;-66
2021/04/09 02:23:59;;;;;;;;;;;23.60;44.70;;;;;;1606707;73;1139;-65
2021/04/09 02:26:01;;;;;;;;;;;23.70;44.80;;;;;;1603755;73;771;-67
2021/04/09 02:28:03;;;;;;;;;;;23.60;44.70;;;;;;1600549;73;1952;-68
2021/04/09 02:30:06;;;;;;;;;;;23.60;44.70;;;;;;1603391;73;627;-67
2021/04/09 02:32:08;;;;;;;;;;;23.60;44.70;;;;;;1604924;73;720;-67
2021/04/09 02:34:10;;;;;;;;;;;23.60;44.90;;;;;;1600607;73;1128;-69
2021/04/09 02:36:13;;;;;;;;;;;23.60;44.90;;;;;;1597675;73;700;-69
2021/04/09 02:38:14;;;;;;;;;;;23.60;44.90;;;;;;1597748;73;871;-68
2021/04/09 02:40:20;;;;;;;;;;;23.60;44.80;;;;;;1601860;73;676;-67
2021/04/09 02:42:22;;;;;;;;;;;23.70;45.00;;;;;;1602728;73;711;-68
2021/04/09 02:44:24;;;;;;;;;;;23.70;44.90;;;;;;1606112;73;1127;-69
2021/04/09 02:46:27;;;;;;;;;;;23.60;44.80;;;;;;1603369;73;1952;-70
2021/04/09 02:48:30;;;;;;;;;;;23.60;44.80;;;;;;1597403;73;1769;-68
2021/04/09 02:50:45;;;;;;;;;;;23.60;44.70;;;;;;1602523;73;632;-67
2021/04/09 02:53:04;;;;;;;;;;;23.60;44.80;;;;;;1595491;73;782;-67
2021/04/09 02:55:07;;;;;;;;;;;23.60;44.80;;;;;;1559784;74;1171;-68
2021/04/09 02:57:09;;;;;;;;;;;23.70;45.00;;;;;;1575706;73;903;-67
2021/04/09 02:59:12;;;;;;;;;;;23.60;45.00;;;;;;1598679;73;777;-69
2021/04/09 03:01:14;;;;;;;;;;;23.60;44.90;;;;;;1607638;73;841;-67
2021/04/09 03:03:16;;;;;;;;;;;23.60;44.90;;;;;;1601551;73;1150;-65
2021/04/09 03:05:19;;;;;;;;;;;23.60;44.90;;;;;;1598079;73;780;-70
2021/04/09 03:07:20;;;;;;;;;;;23.60;44.90;;;;;;1602095;73;1949;-68
2021/04/09 03:09:23;;;;;;;;;;;23.60;44.90;;;;;;1602480;73;671;-67
2021/04/09 03:11:25;;;;;;;;;;;23.60;45.00;;;;;;1601822;73;686;-65
2021/04/09 03:13:27;;;;;;;;;;;23.60;45.00;;;;;;1595590;73;1154;-68
2021/04/09 03:15:29;;;;;;;;;;;23.60;45.00;;;;;;1602821;73;740;-68
2021/04/09 03:17:34;;;;;;;;;;;23.60;45.00;;;;;;1597189;73;836;-67
2021/04/09 03:19:36;;;;;;;;;;;23.60;45.00;;;;;;1596928;73;810;-67
2021/04/09 03:21:38;;;;;;;;;;;23.60;45.00;;;;;;1604355;73;643;-66
2021/04/09 03:23:40;;;;;;;;;;;23.60;45.10;;;;;;1604476;73;1132;-65
2021/04/09 03:25:42;;;;;;;;;;;23.60;45.00;;;;;;1598479;73;799;-65
2021/04/09 03:27:44;;;;;;;;;;;23.60;45.10;;;;;;1603889;73;1944;-68
2021/04/09 03:29:46;;;;;;;;;;;23.60;45.10;;;;;;1604025;73;796;-69
2021/04/09 03:31:48;;;;;;;;;;;23.60;45.00;;;;;;1599629;73;722;-66
2021/04/09 03:33:50;;;;;;;;;;;23.60;45.00;;;;;;1597973;73;1065;-69
2021/04/09 03:35:51;;;;;;;;;;;23.60;44.90;;;;;;1600041;73;718;-69
2021/04/09 03:37:53;;;;;;;;;;;23.60;45.00;;;;;;1602230;73;713;-67
2021/04/09 03:39:55;;;;;;;;;;;23.60;44.90;;;;;;1601784;73;738;-69
2021/04/09 03:41:57;;;;;;;;;;;23.60;45.00;;;;;;1607357;73;795;-69
2021/04/09 03:43:59;;;;;;;;;;;23.60;45.00;;;;;;1598628;73;1127;-68
2021/04/09 03:46:01;;;;;;;;;;;23.60;45.10;;;;;;1601488;73;797;-68
2021/04/09 03:48:03;;;;;;;;;;;23.50;45.10;;;;;;1607506;73;1962;-69
2021/04/09 03:50:05;;;;;;;;;;;23.60;44.90;;;;;;1598697;73;747;-65
2021/04/09 03:52:07;;;;;;;;;;;23.60;45.00;;;;;;1594423;73;800;-70
2021/04/09 03:54:09;;;;;;;;;;;23.60;45.00;;;;;;1600085;73;1104;-69
2021/04/09 03:56:11;;;;;;;;;;;23.60;44.90;;;;;;1596028;73;805;-70
2021/04/09 03:58:13;;;;;;;;;;;23.50;45.20;;;;;;1595164;73;691;-71
2021/04/09 04:00:15;;;;;;;;;;;23.50;45.10;;;;;;1592396;73;676;-71
2021/04/09 04:02:17;;;;;;;;;;;23.50;44.70;;;;;;1598671;73;957;-71
2021/04/09 04:04:19;;;;;;;;;;;23.60;44.30;;;;;;1567443;73;218428;-56
2021/04/09 04:06:20;;;;;;;;;;;23.60;44.20;;;;;;1565789;74;743;-55
2021/04/09 04:08:22;;;;;;;;;;;23.60;44.20;;;;;;1523657;76;1938;-58
2021/04/09 04:10:24;;;;;;;;;;;23.50;44.20;;;;;;1525129;76;785;-60
2021/04/09 04:12:26;;;;;;;;;;;23.50;44.20;;;;;;1551519;74;782;-56
2021/04/09 04:14:28;;;;;;;;;;;23.50;44.00;;;;;;1553663;74;761;-58
2021/04/09 04:16:30;;;;;;;;;;;23.50;44.30;;;;;;1561445;75;796;-59
2021/04/09 04:18:32;;;;;;;;;;;23.50;44.80;;;;;;1533202;76;1096;-58
2021/04/09 04:20:34;;;;;;;;;;;23.50;44.90;;;;;;1527182;76;778;-57
2021/04/09 04:22:36;;;;;;;;;;;23.40;44.90;;;;;;1531290;76;757;-55
2021/04/09 04:24:38;;;;;;;;;;;23.30;44.90;;;;;;1542809;75;787;-55
2021/04/09 04:26:39;;;;;;;;;;;23.50;45.10;;;;;;1545055;75;950;-56
2021/04/09 04:28:41;;;;;;;;;;;23.40;45.10;;;;;;1532628;76;1919;-54
2021/04/09 04:30:50;;;;;;;;;;;23.40;44.80;;;;;;1553664;75;669;-53
2021/04/09 04:32:47;;;;;;;;;;;23.50;45.20;;;;;;1570535;74;1843;-57
2021/04/09 04:34:49;;;;;;;;;;;23.40;44.80;;;;;;1567376;74;666;-58
2021/04/09 04:36:51;;;;;;;;;;;23.50;45.00;;;;;;1576584;74;632;-58
2021/04/09 04:38:52;;;;;;;;;;;23.50;44.90;;;;;;1575504;74;1130;-56
2021/04/09 04:40:54;;;;;;;;;;;23.40;44.80;;;;;;1573541;74;786;-57
2021/04/09 04:42:56;;;;;;;;;;;23.40;44.80;;;;;;1575198;74;685;-58
2021/04/09 04:44:58;;;;;;;;;;;23.40;44.70;;;;;;1573992;74;766;-57
2021/04/09 04:47:00;;;;;;;;;;;23.30;44.70;;;;;;1572757;74;773;-57
2021/04/09 04:49:02;;;;;;;;;;;23.40;44.60;;;;;;1580860;74;1943;-57
2021/04/09 04:51:04;;;;;;;;;;;23.40;45.00;;;;;;1571136;74;738;-58
2021/04/09 04:53:06;;;;;;;;;;;23.40;44.70;;;;;;1571107;74;765;-56
2021/04/09 04:55:08;;;;;;;;;;;23.40;44.60;;;;;;1573274;74;679;-57
2021/04/09 04:57:10;;;;;;;;;;;23.40;45.00;;;;;;1573884;74;643;-56
2021/04/09 04:59:12;;;;;;;;;;;23.40;44.70;;;;;;1571660;74;1221;-58
2021/04/09 05:01:14;;;;;;;;;;;23.30;44.90;;;;;;1573916;74;665;-53
2021/04/09 05:03:16;;;;;;;;;;;23.30;44.90;;;;;;1580388;74;860;-57
2021/04/09 05:05:18;;;;;;;;;;;23.30;44.90;;;;;;1579914;74;726;-55
2021/04/09 05:07:19;;;;;;;;;;;23.30;45.00;;;;;;1574800;74;1935;-54
2021/04/09 05:09:21;;;;;;;;;;;23.30;45.10;;;;;;1586073;74;1095;-61
2021/04/09 05:11:23;;;;;;;;;;;23.20;45.00;;;;;;1594495;74;779;-60
2021/04/09 05:13:25;;;;;;;;;;;23.20;45.40;;;;;;1566127;74;791;-59
2021/04/09 05:15:27;;;;;;;;;;;23.20;45.10;;;;;;1581280;74;765;-58
2021/04/09 05:17:29;;;;;;;;;;;23.20;45.00;;;;;;1573677;74;738;-55
2021/04/09 05:19:31;;;;;;;;;;;23.20;44.90;;;;;;1572987;74;1134;-54
2021/04/09 05:21:32;;;;;;;;;;;23.20;44.80;;;;;;1574003;74;807;-54
2021/04/09 05:23:34;;;;;;;;;;;23.20;44.70;;;;;;1577030;74;777;-58
2021/04/09 05:25:36;;;;;;;;;;;23.20;44.50;;;;;;1561907;74;805;-58
2021/04/09 05:27:38;;;;;;;;;;;23.20;44.30;;;;;;1574475;74;1951;-58
2021/04/09 05:29:40;;;;;;;;;;;23.10;44.20;;;;;;1558211;74;1141;-58
2021/04/09 05:31:42;;;;;;;;;;;23.20;44.10;;;;;;1570504;74;728;-55
2021/04/09 05:33:44;;;;;;;;;;;23.10;44.00;;;;;;1556925;74;776;-56
2021/04/09 05:35:46;;;;;;;;;;;23.10;43.90;;;;;;1567573;74;648;-55
2021/04/09 05:37:48;;;;;;;;;;;23.10;43.90;;;;;;1579427;74;784;-57
2021/04/09 05:39:50;;;;;;;;;;;23.10;43.60;;;;;;1576963;74;1128;-55
2021/04/09 05:41:52;;;;;;;;;;;23.10;43.60;;;;;;1573393;74;662;-57
2021/04/09 05:43:53;;;;;;;;;;;23.10;43.70;;;;;;1569081;74;816;-55
2021/04/09 05:45:55;;;;;;;;;;;22.90;43.80;;;;;;1580774;74;772;-57
2021/04/09 05:48:03;;;;;;;;;;;23.00;44.20;;;;;;1569436;74;1945;-56
2021/04/09 05:50:01;;;;;;;;;;;22.90;44.10;;;;;;1569447;74;1477;-59
2021/04/09 05:52:03;;;;;;;;;;;22.90;43.80;;;;;;1568422;74;747;-56
2021/04/09 05:54:05;;;;;;;;;;;23.00;43.50;;;;;;1566453;74;716;-55
2021/04/09 05:56:07;;;;;;;;;;;23.10;43.40;;;;;;1578258;74;812;-56
2021/04/09 05:58:09;;;;;;;;;;;23.10;43.30;;;;;;1565947;74;786;-58
2021/04/09 06:00:12;;;;;;;;;;;23.10;43.10;;;;;;1556819;74;1141;-59
2021/04/09 06:02:14;;;;;;;;;;;23.00;42.90;;;;;;1568716;74;805;-57
2021/04/09 06:04:16;;;;;;;;;;;23.10;43.00;;;;;;1567208;74;747;-57
2021/04/09 06:06:17;;;;;;;;;;;23.00;42.90;;;;;;1585187;74;781;-55
2021/04/09 06:08:19;;;;;;;;;;;23.10;42.90;;;;;;1566306;74;1947;-60
2021/04/09 06:10:21;;;;;;;;;;;23.10;42.80;;;;;;1579439;74;728;-59
2021/04/09 06:12:23;;;;;;;;;;;23.10;42.40;;;;;;1578839;74;937;-58
2021/04/09 06:14:28;;;;;;;;;;;23.10;42.50;;;;;;1564366;74;756;-58
2021/04/09 06:16:30;;;;;;;;;;;23.10;42.50;;;;;;1573743;74;888;-57
2021/04/09 06:18:32;;;;;;;;;;;23.10;42.30;;;;;;1569276;74;1221;-55
2021/04/09 06:20:34;;;;;;;;;;;23.00;42.30;;;;;;1575182;74;794;-57
2021/04/09 06:22:36;;;;;;;;;;;23.00;42.10;;;;;;1579260;74;668;-60
2021/04/09 06:24:40;;;;;;;;;;;23.00;42.10;;;;;;1585401;74;701;-59
2021/04/09 06:26:42;;;;;;;;;;;23.10;42.10;;;;;;1579506;74;754;-60
2021/04/09 06:28:44;;;;;;;;;;;23.00;41.90;;;;;;1589042;74;1944;-57
2021/04/09 06:30:45;;;;;;;;;;;23.00;41.80;;;;;;1580073;74;767;-57
2021/04/09 06:32:47;;;;;;;;;;;23.00;41.70;;;;;;1595432;74;683;-59
2021/04/09 06:34:49;;;;;;;;;;;23.10;41.80;;;;;;1578498;74;800;-57
2021/04/09 06:36:51;;;;;;;;;;;23.00;41.50;;;;;;1594380;74;713;-55
2021/04/09 06:38:53;;;;;;;;;;;23.00;41.60;;;;;;1585872;74;1136;-58
2021/04/09 06:40:55;;;;;;;;;;;23.00;41.50;;;;;;1586048;74;713;-59
2021/04/09 06:42:57;;;;;;;;;;;23.00;41.50;;;;;;1575761;74;737;-59
2021/04/09 06:44:59;;;;;;;;;;;23.10;41.50;;;;;;1581149;74;781;-58
2021/04/09 06:47:01;;;;;;;;;;;23.00;41.40;;;;;;1576427;74;770;-60
2021/04/09 06:49:03;;;;;;;;;;;23.00;41.40;;;;;;1581661;74;1910;-58
2021/04/09 06:51:05;;;;;;;;;;;23.00;41.40;;;;;;1590671;74;741;-60
2021/04/09 06:53:07;;;;;;;;;;;23.00;41.40;;;;;;1580253;74;935;-58
2021/04/09 06:55:10;;;;;;;;;;;23.00;41.30;;;;;;1585829;74;667;-57
2021/04/09 06:57:12;;;;;;;;;;;23.00;41.30;;;;;;1569782;74;769;-60
2021/04/09 06:59:17;;;;;;;;;;;23.00;41.40;;;;;;1584322;73;1182;-60
2021/04/09 07:01:19;;;;;;;;;;;23.00;41.40;;;;;;1571200;74;753;-58
2021/04/09 07:03:21;;;;;;;;;;;23.00;41.40;;;;;;1578991;74;754;-56
2021/04/09 07:05:23;;;;;;;;;;;23.00;41.40;;;;;;1575872;74;799;-57
2021/04/09 07:07:25;;;;;;;;;;;23.00;41.40;;;;;;1578307;74;613;-56
2021/04/09 07:09:27;;;;;;;;;;;23.00;41.40;;;;;;1577080;74;1921;-55
2021/04/09 07:11:29;;;;;;;;;;;23.00;41.40;;;;;;1580411;74;788;-60
2021/04/09 07:13:31;;;;;;;;;;;23.00;41.30;;;;;;1581843;74;725;-58
2021/04/09 07:15:40;;;;;;;;;;;23.00;41.30;;;;;;1575232;74;808;-58
2021/04/09 07:17:45;;;;;;;;;;;23.00;41.40;;;;;;1580821;74;733;-60
2021/04/09 07:19:47;;;;;;;;;;;22.90;41.40;;;;;;1577372;74;1099;-60
2021/04/09 07:21:50;;;;;;;;;;;23.00;41.30;;;;;;1558639;75;721;-58
2021/04/09 07:24:10;;;;;;;;;;;22.90;41.30;;;;;;1564774;74;927;-59
2021/04/09 07:26:12;;;;;;;;;;;23.00;41.30;;;;;;1570615;74;723;-54
2021/04/09 07:28:17;;;;;;;;;;;23.00;41.30;;;;;;1582933;74;1931;-57
2021/04/09 07:30:21;;;;;;;;;;;23.00;41.30;;;;;;1573884;74;726;-58
2021/04/09 07:32:23;;;;;;;;;;;23.00;41.20;;;;;;1588910;74;1309;-58
2021/04/09 07:34:26;;;;;;;;;;;23.00;41.10;;;;;;1583695;74;750;-58
2021/04/09 07:36:27;;;;;;;;;;;23.10;41.10;;;;;;1579870;74;717;-59
2021/04/09 07:38:30;;;;;;;;;;;23.10;41.00;;;;;;1584889;74;1104;-60
2021/04/09 07:40:32;;;;;;;;;;;23.10;41.00;;;;;;1573626;74;723;-59
2021/04/09 07:42:34;;;;;;;;;;;23.10;41.00;;;;;;1568790;74;803;-61
2021/04/09 07:44:40;;;;;;;;;;;23.10;41.00;;;;;;1579128;74;695;-60
2021/04/09 07:46:40;;;;;;;;;;;23.10;41.00;;;;;;1579319;74;953;-60
2021/04/09 07:48:42;;;;;;;;;;;23.10;41.00;;;;;;1579928;74;1945;-59
2021/04/09 07:50:45;;;;;;;;;;;23.10;41.00;;;;;;1590497;74;788;-56
2021/04/09 07:52:52;;;;;;;;;;;23.20;41.00;;;;;;1577537;74;1582;-58
2021/04/09 07:54:51;;;;;;;;;;;23.20;40.90;;;;;;1577994;74;1442;-58
2021/04/09 07:56:53;;;;;;;;;;;23.20;40.90;;;;;;1570075;74;758;-59
2021/04/09 07:58:55;;;;;;;;;;;23.20;40.80;;;;;;1588099;74;1180;-56
2021/04/09 08:00:58;;;;;;;;;;;23.20;40.80;;;;;;1583075;74;755;-57
2021/04/09 08:03:00;;;;;;;;;;;23.20;40.70;;;;;;1569697;74;726;-58
2021/04/09 08:05:01;;;;;;;;;;;23.20;40.70;;;;;;1577210;74;735;-55
2021/04/09 08:07:03;;;;;;;;;;;23.10;40.70;;;;;;1590626;74;798;-58
2021/04/09 08:09:06;;;;;;;;;;;23.20;40.70;;;;;;1580800;74;1953;-56
2021/04/09 08:11:30;;;;;;;;;;;23.20;40.70;;;;;;1583836;74;645;-57
2021/04/09 08:13:31;;;;;;;;;;;23.30;40.80;;;;;;1580334;74;738;-58
2021/04/09 08:15:33;;;;;;;;;;;23.20;40.60;;;;;;1586360;74;729;-57
2021/04/09 08:17:35;;;;;;;;;;;23.20;40.60;;;;;;1574003;74;808;-56
2021/04/09 08:19:37;;;;;;;;;;;23.20;40.60;;;;;;1583661;74;1143;-56
2021/04/09 08:21:40;;;;;;;;;;;23.30;40.70;;;;;;1549612;75;1124;-58
2021/04/09 08:23:42;;;;;;;;;;;23.20;40.50;;;;;;1586124;74;682;-58
2021/04/09 08:25:44;;;;;;;;;;;23.30;40.60;;;;;;1580186;74;650;-55
2021/04/09 08:27:45;;;;;;;;;;;23.20;40.50;;;;;;1588074;74;735;-59
2021/04/09 08:29:47;;;;;;;;;;;23.30;40.60;;;;;;1573775;74;1941;-58
2021/04/09 08:31:50;;;;;;;;;;;23.20;40.50;;;;;;1578095;74;712;-58
2021/04/09 08:33:53;;;;;;;;;;;23.20;40.50;;;;;;1572928;74;789;-56
2021/04/09 08:35:55;;;;;;;;;;;23.20;40.50;;;;;;1565421;74;795;-56
2021/04/09 08:37:58;;;;;;;;;;;23.30;40.50;;;;;;1573216;74;786;-57
2021/04/09 08:40:00;;;;;;;;;;;23.20;40.40;;;;;;1565894;74;1118;-59
2021/04/09 08:42:02;;;;;;;;;;;23.20;40.40;;;;;;1583329;74;807;-58
2021/04/09 08:44:06;;;;;;;;;;;23.20;40.40;;;;;;1575148;74;732;-58
2021/04/09 08:46:07;;;;;;;;;;;23.30;40.50;;;;;;1582251;74;950;-58
2021/04/09 08:48:12;;;;;;;;;;;23.30;40.50;;;;;;1576934;74;788;-60
2021/04/09 08:50:14;;;;;;;;;;;23.30;40.50;;;;;;1581495;74;1939;-58
2021/04/09 08:52:15;;;;;;;;;;;23.30;40.50;;;;;;1571039;74;636;-57
2021/04/09 08:54:19;;;;;;;;;;;23.30;40.50;;;;;;1588214;74;742;-56
2021/04/09 08:56:25;;;;;;;;;;;23.20;40.40;;;;;;1574417;74;823;-58
2021/04/09 08:58:30;;;;;;;;;;;23.30;40.50;;;;;;1568529;74;1146;-58
2021/04/09 09:00:31;;;;;;;;;;;23.20;40.40;;;;;;1576704;74;1509;-56
2021/04/09 09:02:40;;;;;;;;;;;23.30;40.40;;;;;;1558239;75;814;-58
2021/04/09 09:04:44;;;;;;;;;;;23.30;40.40;;;;;;1572812;74;1843;-57
2021/04/09 09:06:46;;;;;;;;;;;23.30;40.40;;;;;;1565861;74;1592;-56
2021/04/09 09:08:53;;;;;;;;;;;23.30;40.40;;;;;;1577522;74;1922;-57
2021/04/09 09:10:55;;;;;;;;;;;23.30;40.40;;;;;;1581437;74;789;-56
2021/04/09 09:13:14;;;;;;;;;;;23.20;40.30;;;;;;1584211;74;855;-57
2021/04/09 09:15:15;;;;;;;;;;;23.30;40.40;;;;;;1583093;74;1785;-58
2021/04/09 09:17:21;;;;;;;;;;;23.20;40.30;;;;;;1571446;74;696;-55
2021/04/09 09:19:25;;;;;;;;;;;23.30;40.40;;;;;;1581673;74;1128;-58
2021/04/09 09:21:28;;;;;;;;;;;23.20;40.30;;;;;;1578925;74;1764;-58
2021/04/09 09:23:51;;;;;;;;;;;23.30;40.40;;;;;;1584629;74;769;-58
2021/04/09 09:25:50;;;;;;;;;;;23.30;40.40;;;;;;1581190;74;1610;-58
2021/04/09 09:27:52;;;;;;;;;;;23.20;40.30;;;;;;1586964;74;725;-59
2021/04/09 09:29:54;;;;;;;;;;;23.30;40.40;;;;;;1572541;74;1919;-57
2021/04/09 09:31:57;;;;;;;;;;;23.30;40.40;;;;;;1585779;74;776;-57
2021/04/09 09:34:17;;;;;;;;;;;23.30;40.40;;;;;;1582158;74;693;-59
2021/04/09 09:36:23;;;;;;;;;;;23.30;40.40;;;;;;1585090;74;754;-58
2021/04/09 09:38:41;;;;;;;;;;;23.20;40.20;;;;;;1582607;74;1827;-59
2021/04/09 09:40:42;;;;;;;;;;;23.30;40.40;;;;;;1588124;74;847;-57
2021/04/09 09:42:45;;;;;;;;;;;23.20;40.20;;;;;;1586322;74;751;-56
2021/04/09 09:44:50;;;;;;;;;;;23.30;40.30;;;;;;1573944;74;773;-59
2021/04/09 09:46:52;;;;;;;;;;;23.30;40.30;;;;;;1574080;74;706;-58
2021/04/09 09:49:09;;;;;;;;;;;23.30;40.30;;;;;;1588577;74;1951;-56
2021/04/09 09:51:16;;;;;;;;;;;23.30;40.30;;;;;;1590843;74;687;-57
2021/04/09 09:53:18;;;;;;;;;;;23.30;40.30;;;;;;1569476;74;1789;-58
2021/04/09 09:55:32;;;;;;;;;;;23.30;40.30;;;;;;1585752;74;721;-58
2021/04/09 09:57:52;;;;;;;;;;;23.30;40.30;;;;;;1570326;74;722;-57
2021/04/09 09:59:54;;;;;;;;;;;23.30;40.30;;;;;;1574615;74;1136;-59
2021/04/09 10:01:59;;;;;;;;;;;23.30;40.30;;;;;;1578243;74;715;-57
2021/04/09 10:04:01;;;;;;;;;;;23.30;40.30;;;;;;1574169;72;217427;-70
2021/04/09 10:06:14;;;;;;;;;;;23.30;40.20;;;;;;1564921;75;647;-70
2021/04/09 10:08:16;;;;;;;;;;;23.30;40.20;;;;;;1556625;75;697;-72
2021/04/09 10:10:17;;;;;;;;;;;23.30;40.20;;;;;;1573669;74;1932;-70
2021/04/09 10:12:22;;;;;;;;;;;23.30;40.20;;;;;;1569940;74;747;-70
2021/04/09 10:14:27;;;;;;;;;;;23.30;40.20;;;;;;1585561;74;1204;-70
2021/04/09 10:16:27;;;;;;;;;;;23.40;40.20;;;;;;1568815;74;1764;-70
2021/04/09 10:18:29;;;;;;;;;;;23.30;40.20;;;;;;1576346;74;704;-70
2021/04/09 10:20:31;;;;;;;;;;;23.30;40.10;;;;;;1573051;74;763;-70
2021/04/09 10:22:33;;;;;;;;;;;23.30;40.10;;;;;;1579757;74;767;-70
2021/04/09 10:24:38;;;;;;;;;;;23.40;40.10;;;;;;1574107;74;1129;-70
2021/04/09 10:26:40;;;;;;;;;;;23.30;40.10;;;;;;1579307;74;766;-74
2021/04/09 10:28:43;;;;;;;;;;;23.30;40.20;;;;;;1584462;74;816;-71
2021/04/09 10:30:44;;;;;;;;;;;23.30;40.00;;;;;;1578596;74;1923;-70
2021/04/09 10:32:48;;;;;;;;;;;23.30;40.00;;;;;;1583955;74;1042;-70
2021/04/09 10:34:51;;;;;;;;;;;23.30;40.10;;;;;;1566556;74;1698;-70
2021/04/09 10:36:53;;;;;;;;;;;23.30;40.00;;;;;;1583042;74;721;-70
2021/04/09 10:38:56;;;;;;;;;;;23.30;40.00;;;;;;1568048;74;795;-70
2021/04/09 10:40:58;;;;;;;;;;;23.30;40.00;;;;;;1576294;74;1826;-70
2021/04/09 10:43:01;;;;;;;;;;;23.30;40.00;;;;;;1574839;74;836;-70
2021/04/09 10:45:04;;;;;;;;;;;23.30;40.00;;;;;;1566828;74;1122;-70
2021/04/09 10:47:06;;;;;;;;;;;23.30;40.00;;;;;;1566165;74;1918;-70
2021/04/09 10:49:09;;;;;;;;;;;23.30;40.00;;;;;;1560987;75;681;-70
2021/04/09 10:51:11;;;;;;;;;;;23.30;39.90;;;;;;1558917;75;1911;-73
2021/04/09 10:53:13;;;;;;;;;;;23.30;40.00;;;;;;1554516;75;810;-70
2021/04/09 10:55:15;;;;;;;;;;;23.30;40.00;;;;;;1559994;75;1146;-79
2021/04/09 10:57:18;;;;;;;;;;;23.40;40.00;;;;;;1566246;74;752;-70
2021/04/09 10:59:20;;;;;;;;;;;23.30;40.00;;;;;;1568275;74;811;-70
2021/04/09 11:01:28;;;;;;;;;;;23.30;40.00;;;;;;1580044;74;749;-70
2021/04/09 11:03:31;;;;;;;;;;;23.30;40.00;;;;;;1570904;74;754;-70
2021/04/09 11:05:33;;;;;;;;;;;23.30;40.00;;;;;;1559480;74;1067;-73
2021/04/09 11:07:44;;;;;;;;;;;23.30;40.00;;;;;;1549756;75;724;-71
2021/04/09 11:09:50;;;;;;;;;;;23.30;40.00;;;;;;1571557;74;1933;-70
2021/04/09 11:11:52;;;;;;;;;;;23.30;40.00;;;;;;1562602;74;769;-67
2021/04/09 11:13:55;;;;;;;;;;;23.20;39.80;;;;;;1577011;74;1169;-69
2021/04/09 11:15:57;;;;;;;;;;;23.30;39.90;;;;;;1568156;74;1847;-69
2021/04/09 11:18:03;;;;;;;;;;;23.30;39.40;;;;;;1545033;75;722;-69
2021/04/09 11:20:23;;;;;;;;;;;23.30;38.60;;;;;;1538893;76;698;-70
2021/04/09 11:22:27;;;;;;;;;;;23.30;37.90;;;;;;1539870;75;755;-69
2021/04/09 11:24:30;;;;;;;;;;;23.20;37.80;;;;;;1553608;75;1754;-69
2021/04/09 11:26:34;;;;;;;;;;;23.30;37.60;;;;;;1552208;75;703;-70
2021/04/09 11:28:36;;;;;;;;;;;23.20;37.10;;;;;;1555750;75;741;-72
2021/04/09 11:30:38;;;;;;;;;;;23.20;37.20;;;;;;1547554;75;1967;-69
2021/04/09 11:32:41;;;;;;;;;;;23.10;36.90;;;;;;1579026;74;745;-68
2021/04/09 11:34:43;;;;;;;;;;;23.20;36.70;;;;;;1576830;74;1153;-70
2021/04/09 11:36:49;;;;;;;;;;;23.10;36.00;;;;;;1558822;75;801;-69
2021/04/09 11:38:53;;;;;;;;;;;23.10;36.00;;;;;;1552555;75;757;-69
2021/04/09 11:40:55;;;;;;;;;;;23.10;36.50;;;;;;1545760;75;1593;-69
2021/04/09 11:42:57;;;;;;;;;;;23.20;37.10;;;;;;1559476;75;703;-69
2021/04/09 11:45:00;;;;;;;;;;;23.20;36.90;;;;;;1562255;74;1150;-69
2021/04/09 11:47:12;;;;;;;;;;;23.10;37.10;;;;;;1569846;74;1062;-69
2021/04/09 11:49:15;;;;;;;;;;;23.20;37.10;;;;;;1569884;74;829;-71
2021/04/09 11:51:19;;;;;;;;;;;23.20;37.10;;;;;;1540201;75;1916;-70
2021/04/09 11:53:21;;;;;;;;;;;23.20;37.30;;;;;;1528726;75;1065;-69
2021/04/09 11:55:27;;;;;;;;;;;23.20;36.50;;;;;;1546160;75;1159;-70
2021/04/09 11:57:31;;;;;;;;;;;23.20;36.50;;;;;;1546664;75;1037;-70
2021/04/09 11:59:34;;;;;;;;;;;23.10;36.70;;;;;;1544616;75;806;-70
2021/04/09 12:01:36;;;;;;;;;;;23.10;36.70;;;;;;1556614;75;1395;-70
2021/04/09 12:03:41;;;;;;;;;;;23.10;36.10;;;;;;1546066;75;786;-70
2021/04/09 12:05:43;;;;;;;;;;;23.10;36.00;;;;;;1542514;75;1122;-70
2021/04/09 12:07:45;;;;;;;;;;;23.10;35.70;;;;;;1545213;75;911;-70
2021/04/09 12:09:49;;;;;;;;;;;23.10;36.00;;;;;;1538151;75;1932;-70
2021/04/09 12:11:51;;;;;;;;;;;23.10;35.90;;;;;;1537196;75;735;-70
2021/04/09 12:13:53;;;;;;;;;;;23.10;36.00;;;;;;1538566;75;1129;-71